Time,TemperatureF,DewpointF,PressureIn,WindDirection,WindDirectionDegrees,WindSpeedMPH,WindSpeedGustMPH,Humidity,HourlyPrecipIn,Conditions,Clouds,dailyrainin,SoftwareType,DateUTC
2013-09-24 00:00:00,63.5,51.1,29.72,SE,135,4.2,-999.0,64,-99.99,,,0.00,Acu-Link.com,2013-09-24 05:00:00,
2013-09-24 00:15:00,63.1,51.1,29.72,SE,135,3.7,-999.0,65,-99.99,,,0.00,Acu-Link.com,2013-09-24 05:15:00,
2013-09-24 00:30:00,62.6,51.1,29.72,SE,135,4.7,-999.0,66,-99.99,,,0.00,Acu-Link.com,2013-09-24 05:30:00,
2013-09-24 00:45:00,62.2,51.1,29.72,ESE,112,4.7,-999.0,67,-99.99,,,0.00,Acu-Link.com,2013-09-24 05:45:00,
2013-09-24 01:00:00,61.9,50.8,29.72,South,180,3.2,-999.0,67,-99.99,,,0.00,Acu-Link.com,2013-09-24 06:00:00,
2013-09-24 01:16:00,61.5,51.2,29.72,SSE,157,4.2,-999.0,69,-99.99,,,0.00,Acu-Link.com,2013-09-24 06:16:00,
2013-09-24 01:31:00,61.3,51.4,29.72,ESE,112,1.7,-999.0,70,-99.99,,,0.00,Acu-Link.com,2013-09-24 06:31:00,
2013-09-24 01:46:00,60.6,51.1,29.71,East,90,1.7,-999.0,71,-99.99,,,0.00,Acu-Link.com,2013-09-24 06:46:00,
2013-09-24 02:01:00,60.1,51.0,29.72,East,90,0.0,-999.0,72,-99.99,,,0.00,Acu-Link.com,2013-09-24 07:01:00,
2013-09-24 02:17:00,59.7,51.0,29.73,ESE,112,0.0,-999.0,73,-99.99,,,0.00,Acu-Link.com,2013-09-24 07:17:00,
2013-09-24 02:32:00,59.5,50.8,29.73,NE,45,1.1,-999.0,73,-99.99,,,0.00,Acu-Link.com,2013-09-24 07:32:00,
2013-09-24 02:47:00,59.4,51.1,29.73,NNW,337,0.0,-999.0,74,-99.99,,,0.00,Acu-Link.com,2013-09-24 07:47:00,
2013-09-24 03:02:00,59.2,51.3,29.74,NE,45,0.0,-999.0,75,-99.99,,,0.00,Acu-Link.com,2013-09-24 08:02:00,
2013-09-24 03:18:00,59.0,51.1,29.73,NE,45,2.7,-999.0,75,-99.99,,,0.00,Acu-Link.com,2013-09-24 08:18:00,
2013-09-24 03:33:00,59.0,51.1,29.73,NNE,22,2.7,-999.0,75,-99.99,,,0.00,Acu-Link.com,2013-09-24 08:33:00,
2013-09-24 03:49:00,58.8,51.3,29.73,East,90,2.7,-999.0,76,-99.99,,,0.00,Acu-Link.com,2013-09-24 08:49:00,
2013-09-24 04:04:00,58.8,51.3,29.73,ENE,67,5.8,-999.0,76,-99.99,,,0.00,Acu-Link.com,2013-09-24 09:04:00,
2013-09-24 04:19:00,58.6,51.1,29.73,NE,45,3.2,-999.0,76,-99.99,,,0.00,Acu-Link.com,2013-09-24 09:19:00,
2013-09-24 04:34:00,57.4,50.9,29.74,NE,45,3.2,-999.0,79,-99.99,,,0.00,Acu-Link.com,2013-09-24 09:34:00,
2013-09-24 04:49:00,57.4,50.9,29.74,ENE,67,3.7,-999.0,79,-99.99,,,0.00,Acu-Link.com,2013-09-24 09:49:00,
2013-09-24 05:04:00,57.4,50.9,29.74,ENE,67,4.7,-999.0,79,-99.99,,,0.00,Acu-Link.com,2013-09-24 10:04:00,
2013-09-24 05:20:00,56.8,50.4,29.73,NE,45,6.3,-999.0,79,-99.99,,,0.00,Acu-Link.com,2013-09-24 10:20:00,
2013-09-24 05:35:00,56.7,50.6,29.74,ENE,67,2.7,-999.0,80,-99.99,,,0.00,Acu-Link.com,2013-09-24 10:35:00,
2013-09-24 05:50:00,56.7,50.6,29.75,NE,45,4.7,-999.0,80,-99.99,,,0.00,Acu-Link.com,2013-09-24 10:50:00,
2013-09-24 06:06:00,56.7,50.6,29.75,NE,45,3.7,-999.0,80,-99.99,,,0.00,Acu-Link.com,2013-09-24 11:06:00,
2013-09-24 06:21:00,56.5,50.4,29.75,NE,45,3.2,-999.0,80,-99.99,,,0.00,Acu-Link.com,2013-09-24 11:21:00,
2013-09-24 06:36:00,56.5,50.4,29.76,NE,45,4.2,-999.0,80,-99.99,,,0.00,Acu-Link.com,2013-09-24 11:36:00,
2013-09-24 06:51:00,56.5,50.4,29.76,ENE,67,4.7,-999.0,80,-99.99,,,0.00,Acu-Link.com,2013-09-24 11:51:00,
2013-09-24 07:07:00,56.5,50.4,29.76,NE,45,2.7,-999.0,80,-99.99,,,0.00,Acu-Link.com,2013-09-24 12:07:00,
2013-09-24 07:22:00,56.5,50.4,29.77,NNE,22,3.7,-999.0,80,-99.99,,,0.00,Acu-Link.com,2013-09-24 12:22:00,
2013-09-24 07:37:00,56.5,50.4,29.77,ENE,67,2.7,-999.0,80,-99.99,,,0.00,Acu-Link.com,2013-09-24 12:37:00,
2013-09-24 07:53:00,56.5,50.4,29.77,NE,45,3.7,-999.0,80,-99.99,,,0.00,Acu-Link.com,2013-09-24 12:53:00,
2013-09-24 08:08:00,56.7,50.6,29.78,East,90,2.7,-999.0,80,-99.99,,,0.00,Acu-Link.com,2013-09-24 13:08:00,
2013-09-24 08:23:00,57.0,50.9,29.79,NE,45,3.7,-999.0,80,-99.99,,,0.00,Acu-Link.com,2013-09-24 13:23:00,
2013-09-24 08:38:00,57.2,50.7,29.79,East,90,3.2,-999.0,79,-99.99,,,0.00,Acu-Link.com,2013-09-24 13:38:00,
2013-09-24 08:53:00,57.4,50.9,29.79,NNE,22,3.2,-999.0,79,-99.99,,,0.00,Acu-Link.com,2013-09-24 13:53:00,
2013-09-24 09:09:00,57.6,51.1,29.80,NE,45,5.3,-999.0,79,-99.99,,,0.00,Acu-Link.com,2013-09-24 14:09:00,
2013-09-24 09:24:00,58.1,51.6,29.79,NNE,22,4.7,-999.0,79,-99.99,,,0.00,Acu-Link.com,2013-09-24 14:24:00,
2013-09-24 09:39:00,58.8,52.0,29.80,NE,45,5.3,-999.0,78,-99.99,,,0.00,Acu-Link.com,2013-09-24 14:39:00,
2013-09-24 09:54:00,59.7,52.1,29.80,ENE,67,5.8,-999.0,76,-99.99,,,0.00,Acu-Link.com,2013-09-24 14:54:00,
2013-09-24 10:10:00,61.0,53.0,29.80,ENE,67,7.3,-999.0,75,-99.99,,,0.00,Acu-Link.com,2013-09-24 15:10:00,
2013-09-24 10:25:00,61.5,53.1,29.80,NNE,22,5.3,-999.0,74,-99.99,,,0.00,Acu-Link.com,2013-09-24 15:25:00,
2013-09-24 10:40:00,62.2,53.4,29.80,NNE,22,2.7,-999.0,73,-99.99,,,0.00,Acu-Link.com,2013-09-24 15:40:00,
2013-09-24 10:55:00,63.1,53.9,29.81,NNW,337,5.8,-999.0,72,-99.99,,,0.00,Acu-Link.com,2013-09-24 15:55:00,
2013-09-24 11:11:00,63.9,54.3,29.81,NNE,22,4.2,-999.0,71,-99.99,,,0.00,Acu-Link.com,2013-09-24 16:11:00,
2013-09-24 11:26:00,64.9,54.5,29.82,NNW,337,4.2,-999.0,69,-99.99,,,0.00,Acu-Link.com,2013-09-24 16:26:00,
2013-09-24 11:41:00,66.6,54.5,29.81,NNW,337,7.8,-999.0,65,-99.99,,,0.00,Acu-Link.com,2013-09-24 16:41:00,
2013-09-24 11:56:00,68.9,54.4,29.81,NNE,22,6.8,-999.0,60,-99.99,,,0.00,Acu-Link.com,2013-09-24 16:56:00,
2013-09-24 12:11:00,70.7,55.7,29.82,NW,315,7.3,-999.0,59,-99.99,,,0.00,Acu-Link.com,2013-09-24 17:11:00,
2013-09-24 12:26:00,70.7,54.7,29.82,NNE,22,6.3,-999.0,57,-99.99,,,0.00,Acu-Link.com,2013-09-24 17:26:00,
2013-09-24 12:42:00,70.7,54.7,29.82,WNW,292,4.7,-999.0,57,-99.99,,,0.00,Acu-Link.com,2013-09-24 17:42:00,
2013-09-24 12:57:00,72.3,54.7,29.82,NNE,22,7.3,-999.0,54,-99.99,,,0.00,Acu-Link.com,2013-09-24 17:57:00,
2013-09-24 13:12:00,71.2,54.7,29.81,NE,45,7.3,-999.0,56,-99.99,,,0.00,Acu-Link.com,2013-09-24 18:12:00,
2013-09-24 13:27:00,72.3,55.2,29.81,NE,45,8.9,-999.0,55,-99.99,,,0.00,Acu-Link.com,2013-09-24 18:27:00,
2013-09-24 13:42:00,71.4,55.4,29.80,NE,45,5.3,-999.0,57,-99.99,,,0.00,Acu-Link.com,2013-09-24 18:42:00,
2013-09-24 13:58:00,72.7,55.6,29.80,NE,45,8.3,-999.0,55,-99.99,,,0.00,Acu-Link.com,2013-09-24 18:58:00,
2013-09-24 14:13:00,72.5,54.9,29.81,ENE,67,5.8,-999.0,54,-99.99,,,0.00,Acu-Link.com,2013-09-24 19:13:00,
2013-09-24 14:28:00,71.4,54.9,29.80,NE,45,6.8,-999.0,56,-99.99,,,0.00,Acu-Link.com,2013-09-24 19:28:00,
2013-09-24 14:43:00,71.4,54.9,29.80,ENE,67,6.3,-999.0,56,-99.99,,,0.00,Acu-Link.com,2013-09-24 19:43:00,
2013-09-24 14:58:00,71.2,55.2,29.80,North,0,2.2,-999.0,57,-99.99,,,0.00,Acu-Link.com,2013-09-24 19:58:00,
2013-09-24 15:14:00,71.6,55.5,29.80,NE,45,4.2,-999.0,57,-99.99,,,0.00,Acu-Link.com,2013-09-24 20:14:00,
2013-09-24 15:29:00,71.6,55.5,29.80,NE,45,6.3,-999.0,57,-99.99,,,0.00,Acu-Link.com,2013-09-24 20:29:00,
2013-09-24 15:44:00,71.6,55.5,29.80,NE,45,3.2,-999.0,57,-99.99,,,0.00,Acu-Link.com,2013-09-24 20:44:00,
2013-09-24 15:59:00,71.6,55.5,29.79,ENE,67,4.2,-999.0,57,-99.99,,,0.00,Acu-Link.com,2013-09-24 20:59:00,
2013-09-24 16:15:00,72.7,55.1,29.79,NNE,22,4.7,-999.0,54,-99.99,,,0.00,Acu-Link.com,2013-09-24 21:15:00,
2013-09-24 16:30:00,73.9,55.7,29.79,NNE,22,2.7,-999.0,53,-99.99,,,0.00,Acu-Link.com,2013-09-24 21:30:00,
2013-09-24 16:45:00,73.9,55.2,29.80,NNE,22,3.7,-999.0,52,-99.99,,,0.00,Acu-Link.com,2013-09-24 21:45:00,
2013-09-24 17:01:00,74.8,54.9,29.79,ESE,112,3.2,-999.0,50,-99.99,,,0.00,Acu-Link.com,2013-09-24 22:01:00,
2013-09-24 17:16:00,73.9,55.2,29.78,ENE,67,2.7,-999.0,52,-99.99,,,0.00,Acu-Link.com,2013-09-24 22:16:00,
2013-09-24 17:31:00,74.8,56.0,29.79,SE,135,3.2,-999.0,52,-99.99,,,0.00,Acu-Link.com,2013-09-24 22:31:00,
2013-09-24 17:46:00,73.6,55.9,29.79,SSE,157,4.2,-999.0,54,-99.99,,,0.00,Acu-Link.com,2013-09-24 22:46:00,
2013-09-24 18:02:00,73.0,55.9,29.80,ESE,112,2.2,-999.0,55,-99.99,,,0.00,Acu-Link.com,2013-09-24 23:02:00,
2013-09-24 18:17:00,73.8,56.1,29.79,NE,45,2.7,-999.0,54,-99.99,,,0.00,Acu-Link.com,2013-09-24 23:17:00,
2013-09-24 18:32:00,74.7,56.4,29.79,East,90,2.7,-999.0,53,-99.99,,,0.00,Acu-Link.com,2013-09-24 23:32:00,
2013-09-24 18:47:00,74.3,56.6,29.79,NNE,22,1.1,-999.0,54,-99.99,,,0.00,Acu-Link.com,2013-09-24 23:47:00,
2013-09-24 19:03:00,75.2,56.9,29.79,NNE,22,0.0,-999.0,53,-99.99,,,0.00,Acu-Link.com,2013-09-25 00:03:00,
2013-09-24 19:18:00,73.2,56.1,29.79,NE,45,0.0,-999.0,55,-99.99,,,0.00,Acu-Link.com,2013-09-25 00:18:00,
2013-09-24 19:33:00,70.9,56.8,29.79,West,270,0.0,-999.0,61,-99.99,,,0.00,Acu-Link.com,2013-09-25 00:33:00,
2013-09-24 19:49:00,69.1,56.8,29.79,NNW,337,0.0,-999.0,65,-99.99,,,0.00,Acu-Link.com,2013-09-25 00:49:00,
2013-09-24 20:04:00,68.0,56.6,29.80,NNW,337,0.0,-999.0,67,-99.99,,,0.00,Acu-Link.com,2013-09-25 01:04:00,
2013-09-24 20:19:00,66.6,56.5,29.80,NE,45,0.0,-999.0,70,-99.99,,,0.00,Acu-Link.com,2013-09-25 01:19:00,
2013-09-24 20:34:00,66.6,56.1,29.79,NE,45,0.0,-999.0,69,-99.99,,,0.00,Acu-Link.com,2013-09-25 01:34:00,
2013-09-24 20:50:00,65.5,55.8,29.80,NE,45,0.0,-999.0,71,-99.99,,,0.00,Acu-Link.com,2013-09-25 01:50:00,
2013-09-24 21:05:00,65.5,56.2,29.80,ENE,67,2.7,-999.0,72,-99.99,,,0.00,Acu-Link.com,2013-09-25 02:05:00,
2013-09-24 21:20:00,64.2,55.4,29.81,SSE,157,2.2,-999.0,73,-99.99,,,0.00,Acu-Link.com,2013-09-25 02:20:00,
2013-09-24 21:36:00,62.8,54.4,29.80,NE,45,1.7,-999.0,74,-99.99,,,0.00,Acu-Link.com,2013-09-25 02:36:00,
2013-09-24 21:51:00,62.1,54.4,29.81,NE,45,0.0,-999.0,76,-99.99,,,0.00,Acu-Link.com,2013-09-25 02:51:00,
2013-09-24 22:06:00,62.2,54.5,29.81,ESE,112,2.2,-999.0,76,-99.99,,,0.00,Acu-Link.com,2013-09-25 03:06:00,
2013-09-24 22:21:00,61.2,53.9,29.81,ENE,67,0.0,-999.0,77,-99.99,,,0.00,Acu-Link.com,2013-09-25 03:21:00,
2013-09-24 22:36:00,61.0,54.1,29.81,ENE,67,2.2,-999.0,78,-99.99,,,0.00,Acu-Link.com,2013-09-25 03:36:00,
2013-09-24 22:52:00,60.8,53.9,29.81,East,90,1.7,-999.0,78,-99.99,,,0.00,Acu-Link.com,2013-09-25 03:52:00,
2013-09-24 23:07:00,60.1,53.6,29.81,East,90,2.7,-999.0,79,-99.99,,,0.00,Acu-Link.com,2013-09-25 04:07:00,
2013-09-24 23:22:00,59.7,53.5,29.81,ENE,67,1.7,-999.0,80,-99.99,,,0.00,Acu-Link.com,2013-09-25 04:22:00,
2013-09-24 23:37:00,59.4,53.6,29.81,East,90,1.7,-999.0,81,-99.99,,,0.00,Acu-Link.com,2013-09-25 04:37:00,
2013-09-24 23:52:00,59.2,53.4,29.81,ENE,67,2.2,-999.0,81,-99.99,,,0.00,Acu-Link.com,2013-09-25 04:52:00,